sensor_id;sensor_type;location;lat;lon;timestamp;pressure;altitude;pressure_sealevel;temperature;humidity
76156;BME280;64906;51.290;7.348;2024-03-22T00:02:15;99295.88;;;15.15;56.79
76156;BME280;64906;51.290;7.348;2024-03-22T00:04:40;99306.28;;;15.18;56.67
76156;BME280;64906;51.290;7.348;2024-03-22T00:07:06;99300.00;;;15.18;56.65
76156;BME280;64906;51.290;7.348;2024-03-22T00:09:31;99304.63;;;15.17;56.73
76156;BME280;64906;51.290;7.348;2024-03-22T00:11:56;99306.50;;;15.17;56.35
76156;BME280;64906;51.290;7.348;2024-03-22T00:14:22;99300.00;;;15.18;56.73
76156;BME280;64906;51.290;7.348;2024-03-22T00:16:47;99298.09;;;15.18;56.59
76156;BME280;64906;51.290;7.348;2024-03-22T00:19:12;99293.41;;;15.14;56.72
76156;BME280;64906;51.290;7.348;2024-03-22T00:21:37;99296.38;;;15.12;56.72
76156;BME280;64906;51.290;7.348;2024-03-22T00:24:03;99297.19;;;15.13;56.86
76156;BME280;64906;51.290;7.348;2024-03-22T00:26:28;99293.97;;;15.16;56.69
76156;BME280;64906;51.290;7.348;2024-03-22T00:28:53;99297.19;;;15.13;56.58
76156;BME280;64906;51.290;7.348;2024-03-22T00:31:19;99299.91;;;15.13;56.73
76156;BME280;64906;51.290;7.348;2024-03-22T00:33:44;99284.19;;;15.15;56.77
76156;BME280;64906;51.290;7.348;2024-03-22T00:36:10;99292.91;;;15.17;56.55
76156;BME280;64906;51.290;7.348;2024-03-22T00:38:35;99289.13;;;15.18;56.65
76156;BME280;64906;51.290;7.348;2024-03-22T00:41:01;99280.63;;;15.14;56.64
76156;BME280;64906;51.290;7.348;2024-03-22T00:43:26;99282.53;;;15.14;56.65
76156;BME280;64906;51.290;7.348;2024-03-22T00:45:51;99283.03;;;15.11;56.76
76156;BME280;64906;51.290;7.348;2024-03-22T00:48:17;99281.38;;;15.10;56.77
76156;BME280;64906;51.290;7.348;2024-03-22T00:50:43;99279.72;;;15.09;56.89
76156;BME280;64906;51.290;7.348;2024-03-22T00:53:08;99269.66;;;15.09;56.71
76156;BME280;64906;51.290;7.348;2024-03-22T00:55:35;99265.31;;;15.08;56.76
76156;BME280;64906;51.290;7.348;2024-03-22T00:58:00;99263.41;;;15.09;56.90
76156;BME280;64906;51.290;7.348;2024-03-22T01:00:26;99252.78;;;15.07;56.88
76156;BME280;64906;51.290;7.348;2024-03-22T01:02:51;99244.38;;;15.09;57.11
76156;BME280;64906;51.290;7.348;2024-03-22T01:05:17;99240.81;;;15.08;56.49
76156;BME280;64906;51.290;7.348;2024-03-22T01:07:42;99236.22;;;15.09;56.77
76156;BME280;64906;51.290;7.348;2024-03-22T01:10:07;99234.31;;;15.09;56.71
76156;BME280;64906;51.290;7.348;2024-03-22T01:12:33;99234.09;;;15.11;56.63
76156;BME280;64906;51.290;7.348;2024-03-22T01:14:58;99227.22;;;15.08;56.75
76156;BME280;64906;51.290;7.348;2024-03-22T01:17:24;99221.53;;;15.10;56.76
76156;BME280;64906;51.290;7.348;2024-03-22T01:19:50;99221.53;;;15.10;56.65
76156;BME280;64906;51.290;7.348;2024-03-22T01:22:17;99219.91;;;15.09;56.89
76156;BME280;64906;51.290;7.348;2024-03-22T01:24:43;99212.34;;;15.11;56.66
76156;BME280;64906;51.290;7.348;2024-03-22T01:27:08;99215.59;;;15.13;56.59
76156;BME280;64906;51.290;7.348;2024-03-22T01:29:33;99221.03;;;15.13;56.62
76156;BME280;64906;51.290;7.348;2024-03-22T01:31:58;99215.59;;;15.13;56.70
76156;BME280;64906;51.290;7.348;2024-03-22T01:34:24;99214.81;;;15.12;56.64
76156;BME280;64906;51.290;7.348;2024-03-22T01:36:50;99204.72;;;15.13;56.55
76156;BME280;64906;51.290;7.348;2024-03-22T01:39:15;99192.22;;;15.12;56.73
76156;BME280;64906;51.290;7.348;2024-03-22T01:41:42;99193.84;;;15.13;56.63
76156;BME280;64906;51.290;7.348;2024-03-22T01:44:07;99191.38;;;15.11;56.60
76156;BME280;64906;51.290;7.348;2024-03-22T01:46:32;99189.50;;;15.12;56.57
76156;BME280;64906;51.290;7.348;2024-03-22T01:48:58;99176.41;;;15.09;56.53
76156;BME280;64906;51.290;7.348;2024-03-22T01:51:23;99186.78;;;15.12;56.46
76156;BME280;64906;51.290;7.348;2024-03-22T01:53:49;99184.66;;;15.14;56.54
76156;BME280;64906;51.290;7.348;2024-03-22T01:56:14;99172.94;;;15.13;56.52
76156;BME280;64906;51.290;7.348;2024-03-22T01:58:39;99171.31;;;15.12;56.67
76156;BME280;64906;51.290;7.348;2024-03-22T02:01:05;99169.13;;;15.14;56.36
76156;BME280;64906;51.290;7.348;2024-03-22T02:03:31;99154.16;;;15.12;56.60
76156;BME280;64906;51.290;7.348;2024-03-22T02:05:56;99160.44;;;15.12;56.46
76156;BME280;64906;51.290;7.348;2024-03-22T02:08:21;99170.47;;;15.12;56.60
76156;BME280;64906;51.290;7.348;2024-03-22T02:10:47;99169.38;;;15.13;56.74
76156;BME280;64906;51.290;7.348;2024-03-22T02:13:12;99158.50;;;15.13;56.44
76156;BME280;64906;51.290;7.348;2024-03-22T02:15:37;99153.06;;;15.13;56.57
76156;BME280;64906;51.290;7.348;2024-03-22T02:18:03;99147.09;;;15.11;56.72
76156;BME280;64906;51.290;7.348;2024-03-22T02:20:28;99131.56;;;15.11;56.58
76156;BME280;64906;51.290;7.348;2024-03-22T02:22:54;99134.88;;;15.13;56.48
76156;BME280;64906;51.290;7.348;2024-03-22T02:25:19;99134.28;;;15.11;56.61
76156;BME280;64906;51.290;7.348;2024-03-22T02:27:45;99130.97;;;15.09;56.76
76156;BME280;64906;51.290;7.348;2024-03-22T02:30:10;99122.59;;;15.11;56.62
76156;BME280;64906;51.290;7.348;2024-03-22T02:32:35;99125.53;;;15.09;56.64
76156;BME280;64906;51.290;7.348;2024-03-22T02:35:02;99121.78;;;15.10;56.48
76156;BME280;64906;51.290;7.348;2024-03-22T02:37:27;99115.50;;;15.10;56.64
76156;BME280;64906;51.290;7.348;2024-03-22T02:39:53;99120.69;;;15.11;56.66
76156;BME280;64906;51.290;7.348;2024-03-22T02:42:18;99116.91;;;15.12;56.56
76156;BME280;64906;51.290;7.348;2024-03-22T02:44:43;99120.44;;;15.13;56.62
76156;BME280;64906;51.290;7.348;2024-03-22T02:47:09;99113.38;;;15.12;56.53
76156;BME280;64906;51.290;7.348;2024-03-22T02:49:35;99106.84;;;15.13;56.38
76156;BME280;64906;51.290;7.348;2024-03-22T02:52:01;99107.94;;;15.12;56.58
76156;BME280;64906;51.290;7.348;2024-03-22T02:54:26;99093.75;;;15.10;56.53
76156;BME280;64906;51.290;7.348;2024-03-22T02:56:51;99098.94;;;15.11;56.74
76156;BME280;64906;51.290;7.348;2024-03-22T02:59:17;99102.75;;;15.10;56.56
76156;BME280;64906;51.290;7.348;2024-03-22T03:01:42;99102.75;;;15.10;56.62
76156;BME280;64906;51.290;7.348;2024-03-22T03:04:08;99088.91;;;15.12;56.63
76156;BME280;64906;51.290;7.348;2024-03-22T03:06:33;99098.13;;;15.11;56.49
76156;BME280;64906;51.290;7.348;2024-03-22T03:08:58;99090.78;;;15.11;56.62
76156;BME280;64906;51.290;7.348;2024-03-22T03:11:24;99086.19;;;15.12;56.63
76156;BME280;64906;51.290;7.348;2024-03-22T03:13:49;99088.91;;;15.12;56.57
76156;BME280;64906;51.290;7.348;2024-03-22T03:16:14;99080.16;;;15.10;56.58
76156;BME280;64906;51.290;7.348;2024-03-22T03:18:39;99076.38;;;15.11;56.78
76156;BME280;64906;51.290;7.348;2024-03-22T03:21:06;99081.81;;;15.11;56.59
76156;BME280;64906;51.290;7.348;2024-03-22T03:23:31;99066.31;;;15.11;56.59
76156;BME280;64906;51.290;7.348;2024-03-22T03:25:56;99072.84;;;15.10;56.59
76156;BME280;64906;51.290;7.348;2024-03-22T03:28:22;99068.22;;;15.11;56.57
76156;BME280;64906;51.290;7.348;2024-03-22T03:30:47;99069.03;;;15.11;56.63
76156;BME280;64906;51.290;7.348;2024-03-22T03:33:12;99072.84;;;15.10;56.61
76156;BME280;64906;51.290;7.348;2024-03-22T03:35:38;99065.50;;;15.11;56.58
76156;BME280;64906;51.290;7.348;2024-03-22T03:38:03;99069.03;;;15.11;56.58
76156;BME280;64906;51.290;7.348;2024-03-22T03:40:29;99061.97;;;15.10;56.50
76156;BME280;64906;51.290;7.348;2024-03-22T03:42:54;99059.25;;;15.10;56.66
76156;BME280;64906;51.290;7.348;2024-03-22T03:45:19;99064.69;;;15.10;56.65
76156;BME280;64906;51.290;7.348;2024-03-22T03:47:44;99065.72;;;15.09;56.62
76156;BME280;64906;51.290;7.348;2024-03-22T03:50:10;99049.19;;;15.11;56.46
76156;BME280;64906;51.290;7.348;2024-03-22T03:52:35;99049.41;;;15.09;56.60
76156;BME280;64906;51.290;7.348;2024-03-22T03:55:01;99042.09;;;15.10;56.57
76156;BME280;64906;51.290;7.348;2024-03-22T03:57:26;99041.03;;;15.11;56.63
76156;BME280;64906;51.290;7.348;2024-03-22T03:59:51;99030.16;;;15.11;56.52
76156;BME280;64906;51.290;7.348;2024-03-22T04:02:16;99039.13;;;15.11;56.63
76156;BME280;64906;51.290;7.348;2024-03-22T04:04:42;99034.78;;;15.10;56.49
76156;BME280;64906;51.290;7.348;2024-03-22T04:07:07;99022.81;;;15.11;56.36
76156;BME280;64906;51.290;7.348;2024-03-22T04:09:33;99023.63;;;15.12;56.97
76156;BME280;64906;51.290;7.348;2024-03-22T04:11:59;99019.28;;;15.11;56.58
76156;BME280;64906;51.290;7.348;2024-03-22T04:14:25;99017.13;;;15.13;56.45
76156;BME280;64906;51.290;7.348;2024-03-22T04:16:50;99016.06;;;15.14;56.44
76156;BME280;64906;51.290;7.348;2024-03-22T04:19:15;99016.31;;;15.12;56.56
76156;BME280;64906;51.290;7.348;2024-03-22T04:21:41;99006.50;;;15.11;56.38
76156;BME280;64906;51.290;7.348;2024-03-22T04:24:06;99011.34;;;15.09;56.60
76156;BME280;64906;51.290;7.348;2024-03-22T04:26:31;99005.69;;;15.11;56.57
76156;BME280;64906;51.290;7.348;2024-03-22T04:28:57;98997.75;;;15.09;56.62
76156;BME280;64906;51.290;7.348;2024-03-22T04:31:22;98999.44;;;15.10;56.61
76156;BME280;64906;51.290;7.348;2024-03-22T04:33:47;98985.56;;;15.12;56.42
76156;BME280;64906;51.290;7.348;2024-03-22T04:36:12;98987.72;;;15.10;56.32
76156;BME280;64906;51.290;7.348;2024-03-22T04:38:38;98976.84;;;15.10;56.50
76156;BME280;64906;51.290;7.348;2024-03-22T04:41:03;98983.38;;;15.09;56.53
76156;BME280;64906;51.290;7.348;2024-03-22T04:43:29;98976.25;;;15.08;56.48
76156;BME280;64906;51.290;7.348;2024-03-22T04:45:54;98977.09;;;15.08;56.55
76156;BME280;64906;51.290;7.348;2024-03-22T04:48:21;98967.06;;;15.09;56.49
76156;BME280;64906;51.290;7.348;2024-03-22T04:50:47;98963.19;;;15.05;56.66
76156;BME280;64906;51.290;7.348;2024-03-22T04:53:15;98971.09;;;15.06;56.81
76156;BME280;64906;51.290;7.348;2024-03-22T04:55:43;98951.47;;;15.04;56.48
76156;BME280;64906;51.290;7.348;2024-03-22T04:58:17;98957.75;;;15.05;56.70
76156;BME280;64906;51.290;7.348;2024-03-22T05:00:43;98954.19;;;15.04;56.66
76156;BME280;64906;51.290;7.348;2024-03-22T05:03:09;98946.88;;;15.05;56.68
76156;BME280;64906;51.290;7.348;2024-03-22T05:05:35;98944.41;;;15.03;56.63
76156;BME280;64906;51.290;7.348;2024-03-22T05:08:01;98942.53;;;15.04;56.66
76156;BME280;64906;51.290;7.348;2024-03-22T05:10:27;98941.69;;;15.03;56.71
76156;BME280;64906;51.290;7.348;2024-03-22T05:12:54;98945.50;;;15.02;56.73
76156;BME280;64906;51.290;7.348;2024-03-22T05:15:19;98943.56;;;15.03;56.73
76156;BME280;64906;51.290;7.348;2024-03-22T05:17:45;98944.41;;;15.03;56.72
76156;BME280;64906;51.290;7.348;2024-03-22T05:20:10;98940.38;;;15.06;56.69
76156;BME280;64906;51.290;7.348;2024-03-22T05:22:39;98934.94;;;15.06;56.72
76156;BME280;64906;51.290;7.348;2024-03-22T05:25:05;98946.63;;;15.06;56.72
76156;BME280;64906;51.290;7.348;2024-03-22T05:27:32;98937.41;;;15.07;56.90
76156;BME280;64906;51.290;7.348;2024-03-22T05:29:58;98915.06;;;15.05;56.78
76156;BME280;64906;51.290;7.348;2024-03-22T05:32:24;98923.81;;;15.07;56.74
76156;BME280;64906;51.290;7.348;2024-03-22T05:34:49;98924.13;;;15.11;56.71
76156;BME280;64906;51.290;7.348;2024-03-22T05:37:14;98927.06;;;15.09;56.74
76156;BME280;64906;51.290;7.348;2024-03-22T05:39:40;98924.94;;;15.11;56.64
76156;BME280;64906;51.290;7.348;2024-03-22T05:42:05;98923.28;;;15.10;56.90
76156;BME280;64906;51.290;7.348;2024-03-22T05:44:31;98931.19;;;15.12;56.88
76156;BME280;64906;51.290;7.348;2024-03-22T05:46:57;98929.06;;;15.14;56.93
76156;BME280;64906;51.290;7.348;2024-03-22T05:49:22;98929.59;;;15.16;56.83
76156;BME280;64906;51.290;7.348;2024-03-22T05:51:47;98935.59;;;15.18;56.76
76156;BME280;64906;51.290;7.348;2024-03-22T05:54:12;98938.06;;;15.19;56.77
76156;BME280;64906;51.290;7.348;2024-03-22T05:56:38;98943.00;;;15.22;56.68
76156;BME280;64906;51.290;7.348;2024-03-22T05:59:03;98936.75;;;15.22;56.85
76156;BME280;64906;51.290;7.348;2024-03-22T06:01:28;98938.38;;;15.23;56.68
76156;BME280;64906;51.290;7.348;2024-03-22T06:03:53;98939.53;;;15.27;56.99
76156;BME280;64906;51.290;7.348;2024-03-22T06:06:19;98937.34;;;15.29;56.68
76156;BME280;64906;51.290;7.348;2024-03-22T06:08:47;98932.50;;;15.31;56.70
76156;BME280;64906;51.290;7.348;2024-03-22T06:11:17;98925.16;;;15.31;56.73
76156;BME280;64906;51.290;7.348;2024-03-22T06:13:42;98928.47;;;15.33;56.51
76156;BME280;64906;51.290;7.348;2024-03-22T06:16:07;98934.69;;;15.34;56.48
76156;BME280;64906;51.290;7.348;2024-03-22T06:18:33;98933.38;;;15.36;56.64
76156;BME280;64906;51.290;7.348;2024-03-22T06:20:58;98930.09;;;15.34;56.55
76156;BME280;64906;51.290;7.348;2024-03-22T06:23:23;98930.66;;;15.36;56.41
76156;BME280;64906;51.290;7.348;2024-03-22T06:25:55;98929.84;;;15.36;56.57
76156;BME280;64906;51.290;7.348;2024-03-22T06:28:21;98929.09;;;15.40;56.49
76156;BME280;64906;51.290;7.348;2024-03-22T06:30:47;98930.50;;;15.43;56.29
76156;BME280;64906;51.290;7.348;2024-03-22T06:33:12;98921.75;;;15.41;56.52
76156;BME280;64906;51.290;7.348;2024-03-22T06:35:37;98909.56;;;15.43;56.38
76156;BME280;64906;51.290;7.348;2024-03-22T06:38:03;98909.91;;;15.52;56.24
76156;BME280;64906;51.290;7.348;2024-03-22T06:40:29;98905.81;;;15.49;56.33
76156;BME280;64906;51.290;7.348;2024-03-22T06:42:55;98903.91;;;15.50;56.25
76156;BME280;64906;51.290;7.348;2024-03-22T06:45:20;98893.56;;;15.52;56.00
76156;BME280;64906;51.290;7.348;2024-03-22T06:47:45;98892.56;;;15.58;56.00
76156;BME280;64906;51.290;7.348;2024-03-22T06:50:11;98894.75;;;15.61;55.92
76156;BME280;64906;51.290;7.348;2024-03-22T06:52:36;98892.88;;;15.61;55.90
76156;BME280;64906;51.290;7.348;2024-03-22T06:55:02;98905.38;;;15.62;55.98
76156;BME280;64906;51.290;7.348;2024-03-22T06:57:28;98900.25;;;15.66;55.77
76156;BME280;64906;51.290;7.348;2024-03-22T06:59:54;98899.72;;;15.69;55.80
76156;BME280;64906;51.290;7.348;2024-03-22T07:02:19;98900.56;;;15.69;55.64
76156;BME280;64906;51.290;7.348;2024-03-22T07:04:45;98905.47;;;15.72;55.63
76156;BME280;64906;51.290;7.348;2024-03-22T07:07:10;98892.50;;;15.79;55.48
76156;BME280;64906;51.290;7.348;2024-03-22T07:09:36;98896.00;;;15.80;55.50
76156;BME280;64906;51.290;7.348;2024-03-22T07:12:01;98888.41;;;15.82;55.38
76156;BME280;64906;51.290;7.348;2024-03-22T07:14:26;98895.47;;;15.83;55.22
76156;BME280;64906;51.290;7.348;2024-03-22T07:16:52;98894.44;;;15.84;55.06
76156;BME280;64906;51.290;7.348;2024-03-22T07:19:20;98889.78;;;15.84;55.21
76156;BME280;64906;51.290;7.348;2024-03-22T07:21:46;98885.44;;;15.83;55.43
76156;BME280;64906;51.290;7.348;2024-03-22T07:24:12;98884.34;;;15.84;55.38
76156;BME280;64906;51.290;7.348;2024-03-22T07:26:37;98871.03;;;15.88;55.25
76156;BME280;64906;51.290;7.348;2024-03-22T07:29:02;98889.81;;;15.89;55.27
76156;BME280;64906;51.290;7.348;2024-03-22T07:31:28;98877.31;;;15.88;55.43
76156;BME280;64906;51.290;7.348;2024-03-22T07:33:53;98876.78;;;15.91;55.32
76156;BME280;64906;51.290;7.348;2024-03-22T07:36:18;98879.81;;;15.95;55.22
76156;BME280;64906;51.290;7.348;2024-03-22T07:38:44;98881.16;;;15.97;55.28
76156;BME280;64906;51.290;7.348;2024-03-22T07:41:09;98877.69;;;16.02;55.06
76156;BME280;64906;51.290;7.348;2024-03-22T07:43:35;98871.75;;;16.10;54.87
76156;BME280;64906;51.290;7.348;2024-03-22T07:46:00;98883.75;;;16.14;54.73
76156;BME280;64906;51.290;7.348;2024-03-22T07:48:25;98888.94;;;16.15;54.74
76156;BME280;64906;51.290;7.348;2024-03-22T07:51:00;98870.47;;;16.23;54.49
76156;BME280;64906;51.290;7.348;2024-03-22T07:53:26;98869.16;;;16.30;54.19
76156;BME280;64906;51.290;7.348;2024-03-22T07:55:52;98867.56;;;16.39;54.02
76156;BME280;64906;51.290;7.348;2024-03-22T07:58:17;98869.50;;;16.44;53.69
76156;BME280;64906;51.290;7.348;2024-03-22T08:00:42;98853.97;;;16.44;53.63
76156;BME280;64906;51.290;7.348;2024-03-22T08:03:08;98859.44;;;16.44;53.72
76156;BME280;64906;51.290;7.348;2024-03-22T08:05:39;98866.03;;;16.53;53.60
76156;BME280;64906;51.290;7.348;2024-03-22T08:08:04;98871.22;;;16.50;53.61
76156;BME280;64906;51.290;7.348;2024-03-22T08:10:30;98860.59;;;16.53;53.63
76156;BME280;64906;51.290;7.348;2024-03-22T08:12:55;98865.22;;;16.48;53.78
76156;BME280;64906;51.290;7.348;2024-03-22T08:15:21;98860.59;;;16.53;53.51
76156;BME280;64906;51.290;7.348;2024-03-22T08:17:46;98867.13;;;16.52;53.63
76156;BME280;64906;51.290;7.348;2024-03-22T08:20:11;98855.41;;;16.52;53.62
76156;BME280;64906;51.290;7.348;2024-03-22T08:22:36;98860.06;;;16.51;53.64
76156;BME280;64906;51.290;7.348;2024-03-22T08:25:02;98855.97;;;16.54;53.57
76156;BME280;64906;51.290;7.348;2024-03-22T08:27:29;98852.97;;;16.55;53.55
76156;BME280;64906;51.290;7.348;2024-03-22T08:29:54;98846.47;;;16.56;53.60
76156;BME280;64906;51.290;7.348;2024-03-22T08:32:19;98848.09;;;16.62;53.30
76156;BME280;64906;51.290;7.348;2024-03-22T08:34:45;98849.75;;;16.68;53.15
76156;BME280;64906;51.290;7.348;2024-03-22T08:37:11;98843.00;;;16.76;52.92
76156;BME280;64906;51.290;7.348;2024-03-22T08:39:36;98850.38;;;16.80;53.03
76156;BME280;64906;51.290;7.348;2024-03-22T08:42:02;98838.38;;;16.81;52.77
76156;BME280;64906;51.290;7.348;2024-03-22T08:44:30;98848.19;;;16.82;52.73
76156;BME280;64906;51.290;7.348;2024-03-22T08:46:55;98842.75;;;16.82;52.64
76156;BME280;64906;51.290;7.348;2024-03-22T08:49:20;98839.72;;;16.79;52.82
76156;BME280;64906;51.290;7.348;2024-03-22T08:51:46;98840.53;;;16.79;52.86
76156;BME280;64906;51.290;7.348;2024-03-22T08:54:11;98832.13;;;16.81;52.81
76156;BME280;64906;51.290;7.348;2024-03-22T08:56:36;98841.13;;;16.86;52.71
76156;BME280;64906;51.290;7.348;2024-03-22T08:59:01;98835.41;;;16.93;52.50
76156;BME280;64906;51.290;7.348;2024-03-22T09:01:27;98831.34;;;16.95;52.35
76156;BME280;64906;51.290;7.348;2024-03-22T09:03:52;98834.34;;;16.99;52.17
76156;BME280;64906;51.290;7.348;2024-03-22T09:06:17;98837.59;;;16.96;52.19
76156;BME280;64906;51.290;7.348;2024-03-22T09:08:42;98841.97;;;16.97;52.30
76156;BME280;64906;51.290;7.348;2024-03-22T09:11:08;98832.44;;;17.04;52.06
76156;BME280;64906;51.290;7.348;2024-03-22T09:13:34;98832.47;;;17.09;51.96
76156;BME280;64906;51.290;7.348;2024-03-22T09:16:00;98832.47;;;17.19;51.71
76156;BME280;64906;51.290;7.348;2024-03-22T09:18:26;98831.38;;;17.20;51.67
76156;BME280;64906;51.290;7.348;2024-03-22T09:20:55;98830.03;;;17.23;51.70
76156;BME280;64906;51.290;7.348;2024-03-22T09:23:21;98829.22;;;17.22;51.62
76156;BME280;64906;51.290;7.348;2024-03-22T09:25:47;98819.41;;;17.26;51.69
76156;BME280;64906;51.290;7.348;2024-03-22T09:28:13;98817.47;;;17.27;51.39
76156;BME280;64906;51.290;7.348;2024-03-22T09:30:39;98821.03;;;17.32;51.27
76156;BME280;64906;51.290;7.348;2024-03-22T09:33:06;98817.50;;;17.32;51.38
76156;BME280;64906;51.290;7.348;2024-03-22T09:35:33;98810.94;;;17.28;51.32
76156;BME280;64906;51.290;7.348;2024-03-22T09:37:59;98809.59;;;17.35;51.40
76156;BME280;64906;51.290;7.348;2024-03-22T09:40:24;98809.59;;;17.35;51.25
76156;BME280;64906;51.290;7.348;2024-03-22T09:42:49;98816.16;;;17.39;50.99
76156;BME280;64906;51.290;7.348;2024-03-22T09:45:18;98808.75;;;17.40;51.18
76156;BME280;64906;51.290;7.348;2024-03-22T09:47:46;98805.25;;;17.44;50.93
76156;BME280;64906;51.290;7.348;2024-03-22T09:50:13;98808.00;;;17.50;50.77
76156;BME280;64906;51.290;7.348;2024-03-22T09:52:41;98808.00;;;17.50;50.75
76156;BME280;64906;51.290;7.348;2024-03-22T09:55:07;98797.88;;;17.50;50.65
76156;BME280;64906;51.290;7.348;2024-03-22T09:57:37;98797.63;;;17.52;50.60
76156;BME280;64906;51.290;7.348;2024-03-22T10:00:06;98799.00;;;17.64;50.77
76156;BME280;64906;51.290;7.348;2024-03-22T10:02:33;98793.25;;;17.61;50.60
76156;BME280;64906;51.290;7.348;2024-03-22T10:04:58;98785.88;;;17.61;50.56
76156;BME280;64906;51.290;7.348;2024-03-22T10:07:24;98789.69;;;17.60;50.54
76156;BME280;64906;51.290;7.348;2024-03-22T10:09:51;98786.41;;;17.63;50.32
76156;BME280;64906;51.290;7.348;2024-03-22T10:12:17;98788.34;;;17.68;50.37
76156;BME280;64906;51.290;7.348;2024-03-22T10:14:43;98787.81;;;17.71;50.09
76156;BME280;64906;51.290;7.348;2024-03-22T10:17:09;98786.16;;;17.70;50.18
76156;BME280;64906;51.290;7.348;2024-03-22T10:19:35;98773.31;;;17.70;50.12
76156;BME280;64906;51.290;7.348;2024-03-22T10:22:02;98768.97;;;17.74;50.09
76156;BME280;64906;51.290;7.348;2024-03-22T10:24:28;98763.47;;;17.79;49.82
76156;BME280;64906;51.290;7.348;2024-03-22T10:26:53;98758.00;;;17.84;49.77
76156;BME280;64906;51.290;7.348;2024-03-22T10:29:20;98760.72;;;17.89;49.69
76156;BME280;64906;51.290;7.348;2024-03-22T10:31:45;98765.09;;;17.90;49.52
76156;BME280;64906;51.290;7.348;2024-03-22T10:34:12;98756.63;;;17.92;49.69
76156;BME280;64906;51.290;7.348;2024-03-22T10:36:38;98757.19;;;17.84;49.73
76156;BME280;64906;51.290;7.348;2024-03-22T10:39:05;98754.47;;;17.89;49.61
76156;BME280;64906;51.290;7.348;2024-03-22T10:41:32;98748.44;;;17.92;49.38
76156;BME280;64906;51.290;7.348;2024-03-22T10:43:57;98745.72;;;17.92;49.61
76156;BME280;64906;51.290;7.348;2024-03-22T10:46:29;98741.09;;;17.87;49.65
76156;BME280;64906;51.290;7.348;2024-03-22T10:48:56;98735.66;;;17.77;49.92
76156;BME280;64906;51.290;7.348;2024-03-22T10:51:23;98734.53;;;17.78;49.81
76156;BME280;64906;51.290;7.348;2024-03-22T10:53:51;98737.81;;;17.80;49.51
76156;BME280;64906;51.290;7.348;2024-03-22T10:56:21;98732.38;;;17.75;49.98
76156;BME280;64906;51.290;7.348;2024-03-22T10:58:47;98725.78;;;17.76;50.08
76156;BME280;64906;51.290;7.348;2024-03-22T11:01:26;98725.53;;;17.73;50.12
76156;BME280;64906;51.290;7.348;2024-03-22T11:04:04;98725.81;;;17.71;50.17
76156;BME280;64906;51.290;7.348;2024-03-22T11:06:31;98725.50;;;17.83;49.75
76156;BME280;64906;51.290;7.348;2024-03-22T11:08:59;98725.78;;;17.81;49.77
76156;BME280;64906;51.290;7.348;2024-03-22T11:11:28;98711.56;;;17.84;49.74
76156;BME280;64906;51.290;7.348;2024-03-22T11:13:54;98715.94;;;17.90;49.62
76156;BME280;64906;51.290;7.348;2024-03-22T11:16:21;98718.69;;;17.90;49.61
76156;BME280;64906;51.290;7.348;2024-03-22T11:18:46;98706.66;;;17.86;49.65
76156;BME280;64906;51.290;7.348;2024-03-22T11:21:12;98704.19;;;17.90;49.63
76156;BME280;64906;51.290;7.348;2024-03-22T11:23:38;98697.63;;;17.91;49.35
76156;BME280;64906;51.290;7.348;2024-03-22T11:26:03;98704.19;;;17.90;49.37
76156;BME280;64906;51.290;7.348;2024-03-22T11:28:30;98691.66;;;17.89;49.39
76156;BME280;64906;51.290;7.348;2024-03-22T11:30:55;98687.78;;;18.00;49.47
76156;BME280;64906;51.290;7.348;2024-03-22T11:33:21;98685.03;;;18.05;49.07
76156;BME280;64906;51.290;7.348;2024-03-22T11:35:46;98685.56;;;18.12;49.04
76156;BME280;64906;51.290;7.348;2024-03-22T11:38:11;98682.78;;;18.17;48.94
76156;BME280;64906;51.290;7.348;2024-03-22T11:40:37;98684.41;;;18.28;48.50
76156;BME280;64906;51.290;7.348;2024-03-22T11:43:03;98675.63;;;18.31;48.72
76156;BME280;64906;51.290;7.348;2024-03-22T11:45:30;98666.91;;;18.24;48.63
76156;BME280;64906;51.290;7.348;2024-03-22T11:48:01;98665.78;;;18.30;48.75
76156;BME280;64906;51.290;7.348;2024-03-22T11:50:27;98672.63;;;18.27;48.92
76156;BME280;64906;51.290;7.348;2024-03-22T11:52:52;98674.25;;;18.28;48.52
76156;BME280;64906;51.290;7.348;2024-03-22T11:55:18;98677.56;;;18.25;48.79
76156;BME280;64906;51.290;7.348;2024-03-22T11:57:49;98680.84;;;18.27;48.66
76156;BME280;64906;51.290;7.348;2024-03-22T12:00:17;98670.75;;;18.23;48.68
76156;BME280;64906;51.290;7.348;2024-03-22T12:02:44;98665.84;;;18.20;48.62
76156;BME280;64906;51.290;7.348;2024-03-22T12:05:09;98665.31;;;18.18;48.98
76156;BME280;64906;51.290;7.348;2024-03-22T12:07:34;98671.84;;;18.22;48.89
76156;BME280;64906;51.290;7.348;2024-03-22T12:10:00;98665.84;;;18.20;48.82
76156;BME280;64906;51.290;7.348;2024-03-22T12:12:25;98668.81;;;18.23;48.77
76156;BME280;64906;51.290;7.348;2024-03-22T12:14:51;98670.19;;;18.26;48.58
76156;BME280;64906;51.290;7.348;2024-03-22T12:17:17;98669.88;;;18.32;48.60
76156;BME280;64906;51.290;7.348;2024-03-22T12:19:42;98670.97;;;18.36;48.16
76156;BME280;64906;51.290;7.348;2024-03-22T12:22:08;98663.31;;;18.33;48.64
76156;BME280;64906;51.290;7.348;2024-03-22T12:24:33;98664.41;;;18.37;48.54
76156;BME280;64906;51.290;7.348;2024-03-22T12:26:59;98660.31;;;18.40;48.39
76156;BME280;64906;51.290;7.348;2024-03-22T12:29:24;98663.31;;;18.33;48.47
76156;BME280;64906;51.290;7.348;2024-03-22T12:31:50;98661.41;;;18.34;48.29
76156;BME280;64906;51.290;7.348;2024-03-22T12:34:15;98655.66;;;18.35;48.45
76156;BME280;64906;51.290;7.348;2024-03-22T12:36:41;98657.03;;;18.33;49.10
76156;BME280;64906;51.290;7.348;2024-03-22T12:39:06;98662.25;;;18.29;48.44
76156;BME280;64906;51.290;7.348;2024-03-22T12:41:32;98655.97;;;18.29;48.54
76156;BME280;64906;51.290;7.348;2024-03-22T12:43:58;98656.50;;;18.31;48.50
76156;BME280;64906;51.290;7.348;2024-03-22T12:46:24;98643.38;;;18.33;48.50
76156;BME280;64906;51.290;7.348;2024-03-22T12:48:50;98646.88;;;18.38;48.16
76156;BME280;64906;51.290;7.348;2024-03-22T12:51:15;98644.13;;;18.48;48.33
76156;BME280;64906;51.290;7.348;2024-03-22T12:53:41;98637.84;;;18.48;47.88